Time;durP1;ratioP1;P1;durP2;ratioP2;P2;SDS_P1;SDS_P2;PMS_P1;PMS_P2;Temp;Humidity;BMP_temperature;BMP_pressure;BME280_temperature;BME280_humidity;BME280_pressure;Samples;Min_cycle;Max_cycle;Signal;HPM_P1;HPM_P2
2022/07/19 00:01:27;;;;;;;1.55;0.90;;;21.80;51.70;;;;;;5092622;28;20028;-78
2022/07/19 00:03:53;;;;;;;1.45;1.00;;;21.70;51.90;;;;;;5092959;28;20369;-79
2022/07/19 00:06:18;;;;;;;1.42;0.90;;;21.70;52.00;;;;;;5093476;28;20058;-79
2022/07/19 00:08:44;;;;;;;1.17;0.80;;;21.70;52.00;;;;;;5092708;28;20043;-79
2022/07/19 00:11:09;;;;;;;1.30;0.90;;;21.70;52.10;;;;;;5091796;28;20024;-79
2022/07/19 00:13:35;;;;;;;2.28;0.90;;;21.70;52.20;;;;;;5092489;28;20024;-78
2022/07/19 00:16:01;;;;;;;3.97;1.05;;;21.70;52.40;;;;;;5093223;28;20031;-78
2022/07/19 00:18:26;;;;;;;1.35;1.10;;;21.70;52.40;;;;;;5093242;28;20055;-78
2022/07/19 00:20:52;;;;;;;1.63;0.80;;;21.70;52.30;;;;;;5092654;28;20061;-78
2022/07/19 00:23:18;;;;;;;1.05;0.68;;;21.70;52.10;;;;;;5092911;28;20030;-78
2022/07/19 00:25:44;;;;;;;0.65;0.60;;;21.80;52.10;;;;;;5092448;28;20078;-77
2022/07/19 00:28:09;;;;;;;2.42;1.02;;;21.80;51.80;;;;;;5092971;28;20402;-78
2022/07/19 00:30:35;;;;;;;0.65;0.57;;;21.80;51.90;;;;;;5092457;28;20103;-77
2022/07/19 00:33:04;;;;;;;5.70;0.90;;;21.70;51.90;;;;;;5092625;28;20099;-78
2022/07/19 00:35:30;;;;;;;5.88;0.77;;;21.70;51.70;;;;;;5092543;28;20020;-76
2022/07/19 00:37:55;;;;;;;0.80;0.70;;;21.80;51.30;;;;;;5092552;28;20526;-78
2022/07/19 00:40:25;;;;;;;1.23;0.80;;;21.70;51.20;;;;;;5092752;28;20032;-79
2022/07/19 00:42:55;;;;;;;1.75;0.80;;;21.80;51.20;;;;;;5092376;28;20025;-80
2022/07/19 00:45:20;;;;;;;1.42;0.82;;;21.70;51.50;;;;;;5092385;28;20483;-78
2022/07/19 00:47:46;;;;;;;1.58;0.70;;;21.70;51.00;;;;;;5092381;28;20052;-78
2022/07/19 00:50:12;;;;;;;1.13;0.73;;;21.60;51.00;;;;;;5092810;28;20035;-78
2022/07/19 00:52:39;;;;;;;1.35;0.90;;;21.70;51.00;;;;;;5092641;28;20110;-78
2022/07/19 00:55:07;;;;;;;1.02;0.70;;;21.70;50.90;;;;;;5096554;28;20095;-79
2022/07/19 00:57:33;;;;;;;0.80;0.60;;;21.70;50.80;;;;;;5096363;28;20464;-79
2022/07/19 00:59:59;;;;;;;1.38;0.70;;;21.70;50.90;;;;;;5096677;28;20068;-79
2022/07/19 01:02:26;;;;;;;0.77;0.60;;;21.70;51.00;;;;;;5096664;28;20066;-80
2022/07/19 01:04:51;;;;;;;0.65;0.60;;;21.70;50.70;;;;;;5096192;28;20603;-80
2022/07/19 01:07:17;;;;;;;4.72;0.95;;;21.70;50.50;;;;;;5096525;28;20152;-80
2022/07/19 01:09:43;;;;;;;1.20;0.70;;;21.60;50.50;;;;;;5096140;28;20039;-79
2022/07/19 01:12:09;;;;;;;1.17;0.80;;;21.60;50.50;;;;;;5096690;28;20120;-79
2022/07/19 01:14:37;;;;;;;2.05;0.93;;;21.60;50.70;;;;;;5095797;28;20106;-79
2022/07/19 01:17:04;;;;;;;1.50;0.90;;;21.50;50.90;;;;;;5096614;28;20035;-80
2022/07/19 01:19:29;;;;;;;1.75;0.75;;;21.50;51.00;;;;;;5096274;28;20036;-80
2022/07/19 01:21:55;;;;;;;0.88;0.63;;;21.50;51.30;;;;;;5095910;28;20031;-79
2022/07/19 01:24:21;;;;;;;1.08;0.60;;;21.40;51.50;;;;;;5095831;28;20487;-79
2022/07/19 01:26:46;;;;;;;1.30;0.70;;;21.40;51.90;;;;;;5096104;28;20376;-80
2022/07/19 01:29:16;;;;;;;0.80;0.70;;;21.40;51.80;;;;;;5095588;28;20052;-79
2022/07/19 01:31:42;;;;;;;1.92;0.75;;;21.40;51.90;;;;;;5095397;28;20453;-79
2022/07/19 01:34:07;;;;;;;3.75;0.60;;;21.40;51.70;;;;;;5095732;28;20038;-80
2022/07/19 01:36:34;;;;;;;2.15;1.20;;;21.30;51.50;;;;;;5096061;28;20024;-79
2022/07/19 01:38:59;;;;;;;1.90;0.57;;;21.30;51.60;;;;;;5095858;28;20452;-79
2022/07/19 01:41:25;;;;;;;1.40;0.90;;;21.20;51.50;;;;;;5095903;28;20028;-79
2022/07/19 01:43:51;;;;;;;0.88;0.75;;;21.20;51.80;;;;;;5095295;28;20026;-79
2022/07/19 01:46:16;;;;;;;0.70;0.70;;;21.20;51.80;;;;;;5096091;28;20024;-79
2022/07/19 01:48:42;;;;;;;1.17;0.70;;;21.10;51.80;;;;;;5095060;28;20066;-79
2022/07/19 01:51:08;;;;;;;0.90;0.70;;;21.10;51.80;;;;;;5095872;28;20024;-79
2022/07/19 01:53:34;;;;;;;1.45;0.82;;;21.10;52.30;;;;;;5095736;28;20080;-79
2022/07/19 01:56:03;;;;;;;1.40;0.80;;;21.10;52.40;;;;;;5095331;28;20056;-79
2022/07/19 01:58:28;;;;;;;1.73;0.70;;;21.10;52.40;;;;;;5095322;28;20054;-79
2022/07/19 02:00:54;;;;;;;1.45;0.75;;;21.00;52.30;;;;;;5093857;28;20024;-79
2022/07/19 02:03:20;;;;;;;0.73;0.73;;;21.00;53.00;;;;;;5095272;28;20403;-79
2022/07/19 02:05:45;;;;;;;0.90;0.75;;;21.00;52.50;;;;;;5095039;28;20020;-79
2022/07/19 02:08:11;;;;;;;1.02;0.70;;;21.00;52.40;;;;;;5095522;28;20020;-79
2022/07/19 02:10:37;;;;;;;0.95;0.82;;;21.00;52.30;;;;;;5094911;28;20058;-77
2022/07/19 02:13:02;;;;;;;2.05;1.08;;;21.00;52.20;;;;;;5095456;28;20028;-80
2022/07/19 02:15:28;;;;;;;2.55;1.00;;;21.00;52.40;;;;;;5095249;28;20469;-79
2022/07/19 02:17:55;;;;;;;1.55;0.75;;;20.90;52.50;;;;;;5094941;28;20027;-80
2022/07/19 02:20:21;;;;;;;1.30;0.80;;;20.90;52.60;;;;;;5095074;28;20498;-80
2022/07/19 02:22:47;;;;;;;4.22;1.08;;;20.90;53.30;;;;;;5095050;28;20032;-79
2022/07/19 02:25:13;;;;;;;1.05;0.95;;;20.90;53.10;;;;;;5094842;28;20078;-79
2022/07/19 02:27:39;;;;;;;0.60;0.60;;;20.80;53.20;;;;;;5094548;28;20024;-79
2022/07/19 02:30:06;;;;;;;1.38;0.98;;;20.80;53.70;;;;;;5095168;28;20060;-79
2022/07/19 02:32:31;;;;;;;2.33;0.70;;;20.70;53.90;;;;;;5094899;28;20052;-79
2022/07/19 02:34:57;;;;;;;3.33;1.02;;;20.70;54.30;;;;;;5094475;28;20063;-80
2022/07/19 02:37:22;;;;;;;1.45;0.75;;;20.70;54.40;;;;;;5094604;28;20071;-80
2022/07/19 02:39:48;;;;;;;1.58;0.73;;;20.70;54.60;;;;;;5093196;28;20373;-80
2022/07/19 02:42:13;;;;;;;2.00;1.00;;;20.80;54.60;;;;;;5094876;28;20028;-80
2022/07/19 02:44:39;;;;;;;3.42;0.98;;;20.80;54.50;;;;;;5094634;28;20020;-77
2022/07/19 02:47:05;;;;;;;1.30;0.90;;;20.80;54.60;;;;;;5094589;28;20020;-80
2022/07/19 02:49:30;;;;;;;1.05;0.70;;;20.80;54.60;;;;;;5094791;28;20146;-80
2022/07/19 02:51:56;;;;;;;0.80;0.60;;;20.70;54.90;;;;;;5093683;28;20499;-80
2022/07/19 02:54:21;;;;;;;3.90;2.00;;;20.70;54.80;;;;;;5094862;28;20036;-80
2022/07/19 02:56:47;;;;;;;0.88;0.82;;;20.70;55.50;;;;;;5094468;28;20028;-79
2022/07/19 02:59:13;;;;;;;2.17;1.00;;;20.70;55.20;;;;;;5094573;28;20097;-80
2022/07/19 03:01:38;;;;;;;1.42;1.33;;;20.60;55.40;;;;;;5094406;28;20372;-80
2022/07/19 03:04:04;;;;;;;1.17;0.75;;;20.60;56.20;;;;;;5094081;28;20471;-79
2022/07/19 03:06:30;;;;;;;1.20;0.90;;;20.50;56.10;;;;;;5093135;28;20073;-81
2022/07/19 03:08:55;;;;;;;0.60;0.60;;;20.50;56.20;;;;;;5094084;28;20031;-81
2022/07/19 03:11:21;;;;;;;1.45;1.00;;;20.50;56.10;;;;;;5094358;28;20028;-79
2022/07/19 03:13:47;;;;;;;1.80;1.00;;;20.50;56.30;;;;;;5093563;28;20032;-80
2022/07/19 03:16:12;;;;;;;1.58;1.00;;;20.50;56.30;;;;;;5093359;28;20092;-80
2022/07/19 03:18:38;;;;;;;3.50;1.00;;;20.40;56.60;;;;;;5094159;28;20032;-80
2022/07/19 03:21:04;;;;;;;1.60;0.80;;;20.40;57.10;;;;;;5093970;28;20028;-79
2022/07/19 03:23:36;;;;;;;1.45;1.05;;;20.40;56.80;;;;;;5094140;28;20027;-80
2022/07/19 03:26:03;;;;;;;0.55;0.55;;;20.30;57.00;;;;;;5093711;28;20028;-79
2022/07/19 03:28:28;;;;;;;2.67;0.93;;;20.30;57.20;;;;;;5094097;28;20048;-79
2022/07/19 03:30:54;;;;;;;1.23;0.95;;;20.30;57.60;;;;;;5093433;28;20035;-79
2022/07/19 03:33:20;;;;;;;3.60;0.88;;;20.30;57.30;;;;;;5093960;28;20474;-79
2022/07/19 03:35:46;;;;;;;1.70;1.00;;;20.30;57.60;;;;;;5093188;28;20384;-79
2022/07/19 03:38:13;;;;;;;1.67;0.80;;;20.30;57.70;;;;;;5093299;28;20024;-79
2022/07/19 03:40:39;;;;;;;1.40;1.15;;;20.40;58.50;;;;;;5093831;28;20055;-79
2022/07/19 03:43:05;;;;;;;1.25;0.65;;;20.30;58.60;;;;;;5093323;28;20024;-79
2022/07/19 03:45:31;;;;;;;1.95;1.00;;;20.30;59.30;;;;;;5093682;28;20036;-80
2022/07/19 03:47:56;;;;;;;1.20;1.00;;;20.30;59.00;;;;;;5093230;28;20020;-80
2022/07/19 03:50:22;;;;;;;1.65;1.23;;;20.30;59.70;;;;;;5093369;28;20028;-79
2022/07/19 03:52:48;;;;;;;6.40;1.20;;;20.40;60.20;;;;;;5093239;28;20060;-79
2022/07/19 03:55:13;;;;;;;1.70;1.20;;;20.40;60.20;;;;;;5093250;28;20039;-80
2022/07/19 03:57:39;;;;;;;1.23;1.00;;;20.40;60.40;;;;;;5093683;28;20032;-80
2022/07/19 04:00:06;;;;;;;1.50;1.10;;;20.40;60.30;;;;;;5092827;28;20461;-80
2022/07/19 04:02:31;;;;;;;3.03;1.40;;;20.40;60.40;;;;;;5093477;28;20024;-80
2022/07/19 04:04:57;;;;;;;4.20;1.40;;;20.50;61.00;;;;;;5093046;28;20031;-80
2022/07/19 04:07:23;;;;;;;1.73;0.93;;;20.50;61.10;;;;;;5093394;28;20391;-80
2022/07/19 04:09:49;;;;;;;1.73;1.20;;;20.50;62.20;;;;;;5091816;28;20032;-80
2022/07/19 04:12:14;;;;;;;3.58;1.30;;;20.60;62.30;;;;;;5092460;28;20475;-80
2022/07/19 04:14:40;;;;;;;4.13;1.13;;;20.70;62.50;;;;;;5092767;28;20026;-80
2022/07/19 04:17:07;;;;;;;2.35;1.10;;;20.70;62.60;;;;;;5092369;28;20421;-80
2022/07/19 04:19:33;;;;;;;1.98;1.23;;;20.80;63.30;;;;;;5091398;28;20032;-80
2022/07/19 04:21:58;;;;;;;2.63;1.05;;;20.80;63.80;;;;;;5092610;28;20065;-80
2022/07/19 04:24:24;;;;;;;2.00;1.10;;;20.90;63.30;;;;;;5092983;28;20099;-81
2022/07/19 04:26:49;;;;;;;2.33;1.55;;;21.00;62.70;;;;;;5088541;28;20103;-80
2022/07/19 04:29:15;;;;;;;2.45;1.30;;;21.10;62.50;;;;;;5092611;28;20048;-81
2022/07/19 04:31:41;;;;;;;1.40;1.13;;;21.20;62.40;;;;;;5092682;28;20039;-81
2022/07/19 04:34:06;;;;;;;1.98;1.38;;;21.30;62.20;;;;;;5092483;28;20099;-80
2022/07/19 04:36:32;;;;;;;2.30;1.45;;;21.40;61.70;;;;;;5092938;28;20024;-80
2022/07/19 04:38:58;;;;;;;6.65;1.48;;;21.60;61.20;;;;;;5092225;28;20388;-82
2022/07/19 04:41:23;;;;;;;3.78;1.90;;;21.70;61.20;;;;;;5092190;28;20376;-81
2022/07/19 04:43:49;;;;;;;4.10;2.00;;;21.90;60.90;;;;;;5091230;28;20460;-81
2022/07/19 04:46:15;;;;;;;5.07;1.98;;;22.00;60.10;;;;;;5089911;28;20027;-81
2022/07/19 04:48:41;;;;;;;3.00;1.50;;;22.20;59.50;;;;;;5091944;28;20464;-82
2022/07/19 04:51:07;;;;;;;2.03;1.42;;;22.30;59.20;;;;;;5091832;28;20487;-78
2022/07/19 04:53:33;;;;;;;1.98;1.30;;;22.50;58.90;;;;;;5092570;28;20028;-79
2022/07/19 04:55:58;;;;;;;2.30;1.52;;;22.70;58.40;;;;;;5092190;28;20023;-80
2022/07/19 04:58:24;;;;;;;3.40;1.60;;;22.80;57.40;;;;;;5092517;28;20020;-82
2022/07/19 05:00:50;;;;;;;3.33;1.20;;;23.00;56.30;;;;;;5091977;28;20031;-78
2022/07/19 05:03:15;;;;;;;3.40;1.35;;;23.20;55.80;;;;;;5092541;28;20052;-80
2022/07/19 05:05:41;;;;;;;5.20;1.25;;;23.40;55.50;;;;;;5092831;28;20026;-80
2022/07/19 05:08:06;;;;;;;3.10;1.73;;;23.70;54.90;;;;;;5092280;28;20027;-80
2022/07/19 05:10:33;;;;;;;2.38;1.40;;;23.90;54.30;;;;;;5092244;28;20081;-79
2022/07/19 05:12:59;;;;;;;3.13;1.48;;;24.20;54.10;;;;;;5091926;28;20024;-80
2022/07/19 05:15:24;;;;;;;3.60;1.40;;;24.40;53.60;;;;;;5084076;28;20031;-77
2022/07/19 05:17:50;;;;;;;2.63;1.60;;;24.60;52.60;;;;;;5072054;28;20067;-74
2022/07/19 05:20:16;;;;;;;1.73;1.30;;;24.90;52.10;;;;;;5070903;28;20032;-79
2022/07/19 05:22:43;;;;;;;1.67;1.05;;;25.10;50.90;;;;;;5072101;28;20060;-80
2022/07/19 05:25:09;;;;;;;1.58;1.15;;;25.50;49.40;;;;;;5071733;28;20029;-77
2022/07/19 05:27:35;;;;;;;1.98;1.42;;;25.70;48.30;;;;;;5070776;28;20068;-75
2022/07/19 05:30:02;;;;;;;2.08;1.30;;;26.00;46.90;;;;;;5071179;28;20139;-76
2022/07/19 05:32:27;;;;;;;4.38;1.23;;;26.30;46.60;;;;;;5071632;28;20485;-78
2022/07/19 05:34:53;;;;;;;5.97;1.23;;;26.60;45.40;;;;;;5087581;28;20055;-75
2022/07/19 05:37:19;;;;;;;4.40;1.40;;;26.80;45.10;;;;;;5092238;28;20111;-76
2022/07/19 05:39:44;;;;;;;2.55;1.27;;;27.10;44.60;;;;;;5094379;28;20036;-76
2022/07/19 05:42:10;;;;;;;2.60;1.15;;;27.40;44.10;;;;;;5095478;28;20028;-76
2022/07/19 05:44:35;;;;;;;3.50;1.05;;;27.50;43.40;;;;;;5095962;28;20026;-76
2022/07/19 05:47:02;;;;;;;3.03;1.05;;;27.80;43.00;;;;;;5095406;28;20127;-76
2022/07/19 05:49:27;;;;;;;2.55;1.25;;;28.10;42.30;;;;;;5095898;28;20060;-77
2022/07/19 05:51:53;;;;;;;1.40;1.10;;;28.30;41.60;;;;;;5095372;28;20031;-77
2022/07/19 05:54:19;;;;;;;2.50;0.90;;;28.60;41.70;;;;;;5095426;28;20377;-77
2022/07/19 05:56:44;;;;;;;1.85;1.27;;;28.70;40.50;;;;;;5095410;28;20070;-76
2022/07/19 05:59:10;;;;;;;5.80;1.38;;;28.90;39.80;;;;;;5094898;28;20028;-76
2022/07/19 06:01:36;;;;;;;1.50;1.05;;;29.10;39.40;;;;;;5095541;28;20103;-76
2022/07/19 06:04:02;;;;;;;3.88;1.35;;;29.30;38.30;;;;;;5095013;28;20145;-76
2022/07/19 06:06:30;;;;;;;1.63;0.90;;;29.50;38.60;;;;;;5095057;28;20035;-77
2022/07/19 06:08:56;;;;;;;1.23;0.70;;;29.70;38.50;;;;;;5095031;28;20527;-77
2022/07/19 06:11:22;;;;;;;1.02;0.80;;;30.00;38.20;;;;;;5095582;28;20028;-77
2022/07/19 06:13:49;;;;;;;1.30;0.90;;;30.20;37.40;;;;;;5095314;28;20066;-77
2022/07/19 06:16:15;;;;;;;2.00;1.00;;;30.50;37.30;;;;;;5094903;28;20035;-76
2022/07/19 06:18:41;;;;;;;1.83;0.82;;;30.70;37.00;;;;;;5095116;28;20376;-77
2022/07/19 06:21:09;;;;;;;1.52;0.95;;;30.90;36.60;;;;;;5094489;28;20020;-77
2022/07/19 06:23:35;;;;;;;1.38;0.80;;;31.00;36.30;;;;;;5095060;28;20039;-75
2022/07/19 06:26:02;;;;;;;2.83;0.90;;;30.90;35.40;;;;;;5094724;28;20031;-75
2022/07/19 06:28:28;;;;;;;0.98;0.73;;;31.00;35.90;;;;;;5094720;28;20135;-77
2022/07/19 06:30:54;;;;;;;0.75;0.70;;;31.00;35.10;;;;;;5095078;28;20389;-77
2022/07/19 06:33:20;;;;;;;1.67;0.90;;;31.00;35.40;;;;;;5094782;28;20032;-76
2022/07/19 06:35:46;;;;;;;17.70;3.58;;;31.10;35.00;;;;;;5095620;28;20456;-77
2022/07/19 06:38:12;;;;;;;0.88;0.77;;;31.10;34.70;;;;;;5103104;28;20102;-76
2022/07/19 06:40:38;;;;;;;2.40;0.93;;;31.20;35.20;;;;;;5097763;28;20028;-75
2022/07/19 06:43:04;;;;;;;1.98;1.10;;;31.40;35.40;;;;;;5094340;28;20430;-76
2022/07/19 06:45:29;;;;;;;2.30;1.20;;;31.50;35.20;;;;;;5094469;28;20065;-77
2022/07/19 06:47:55;;;;;;;1.70;1.15;;;31.70;35.20;;;;;;5094312;28;20111;-75
2022/07/19 06:50:21;;;;;;;1.77;1.00;;;32.00;34.50;;;;;;5094428;28;20047;-76
2022/07/19 06:52:47;;;;;;;1.38;0.80;;;32.10;34.20;;;;;;5094999;28;20047;-77
2022/07/19 06:55:13;;;;;;;1.75;1.00;;;32.40;34.20;;;;;;5093774;28;20032;-77
2022/07/19 06:57:39;;;;;;;0.93;0.85;;;32.80;33.60;;;;;;5094572;28;20028;-77
2022/07/19 07:00:07;;;;;;;1.65;0.75;;;33.10;33.70;;;;;;5093890;28;20036;-76
2022/07/19 07:02:33;;;;;;;1.75;1.00;;;33.50;32.80;;;;;;5094325;28;20032;-76
2022/07/19 07:04:58;;;;;;;1.90;1.20;;;34.00;32.70;;;;;;5094287;28;20099;-75
2022/07/19 07:07:24;;;;;;;1.92;0.88;;;34.40;32.20;;;;;;5093885;28;20032;-77
2022/07/19 07:09:50;;;;;;;3.05;1.00;;;34.90;31.30;;;;;;5093936;28;20039;-76
2022/07/19 07:12:15;;;;;;;2.78;1.27;;;35.20;30.40;;;;;;5093163;28;20111;-77
2022/07/19 07:14:41;;;;;;;1.23;0.77;;;35.70;30.20;;;;;;5093910;28;20024;-77
2022/07/19 07:17:07;;;;;;;0.80;0.80;;;36.10;30.00;;;;;;5092216;28;20038;-76
2022/07/19 07:19:32;;;;;;;2.78;1.20;;;36.50;29.90;;;;;;5093944;28;20039;-77
2022/07/19 07:22:00;;;;;;;1.80;0.90;;;36.90;29.40;;;;;;5093946;28;20028;-77
2022/07/19 07:24:26;;;;;;;1.08;0.90;;;37.10;28.90;;;;;;5093610;28;20457;-76
2022/07/19 07:26:52;;;;;;;1.55;1.00;;;37.40;28.90;;;;;;5093824;28;20020;-77
2022/07/19 07:29:17;;;;;;;1.60;0.90;;;37.40;28.80;;;;;;5093954;28;20123;-77
2022/07/19 07:31:43;;;;;;;2.38;1.15;;;37.40;28.40;;;;;;5093911;28;20058;-76
2022/07/19 07:34:09;;;;;;;1.02;0.70;;;37.30;28.60;;;;;;5093540;28;20028;-76
2022/07/19 07:36:35;;;;;;;4.00;0.80;;;37.10;28.30;;;;;;5093705;28;20032;-76
2022/07/19 07:39:01;;;;;;;1.67;0.82;;;37.10;28.40;;;;;;5092316;28;20054;-76
2022/07/19 07:41:26;;;;;;;1.30;0.90;;;37.00;28.40;;;;;;5093481;28;20030;-75
2022/07/19 07:43:52;;;;;;;0.98;0.73;;;36.90;28.40;;;;;;5093403;28;20106;-76
2022/07/19 07:46:17;;;;;;;1.95;0.70;;;36.80;28.20;;;;;;5092770;28;20451;-76
2022/07/19 07:48:43;;;;;;;1.00;0.85;;;36.80;28.50;;;;;;5093480;28;20032;-76
2022/07/19 07:51:09;;;;;;;1.17;0.80;;;36.80;28.00;;;;;;5093040;28;20024;-75
2022/07/19 07:53:35;;;;;;;1.42;0.80;;;36.40;27.90;;;;;;5093118;28;20050;-75
2022/07/19 07:56:00;;;;;;;3.80;1.17;;;36.40;28.50;;;;;;5093401;28;20028;-76
2022/07/19 07:58:26;;;;;;;1.20;1.00;;;36.70;29.20;;;;;;5093321;28;20024;-76
2022/07/19 08:00:52;;;;;;;1.58;1.25;;;37.00;29.90;;;;;;5091993;28;20465;-77
2022/07/19 08:03:17;;;;;;;3.90;1.63;;;37.20;29.70;;;;;;5092234;28;20020;-77
2022/07/19 08:05:47;;;;;;;1.98;1.40;;;37.40;29.90;;;;;;5093547;28;20461;-76
2022/07/19 08:08:16;;;;;;;3.47;1.17;;;37.40;29.60;;;;;;5092688;28;20020;-76
2022/07/19 08:10:42;;;;;;;1.88;1.10;;;37.50;30.00;;;;;;5093124;28;20108;-77
2022/07/19 08:13:08;;;;;;;2.85;1.10;;;37.60;29.70;;;;;;5092875;28;20479;-77
2022/07/19 08:15:37;;;;;;;2.47;1.50;;;37.90;29.80;;;;;;5092845;28;20333;-77
2022/07/19 08:18:04;;;;;;;1.20;0.75;;;38.00;29.20;;;;;;5093071;28;20107;-77
2022/07/19 08:20:30;;;;;;;1.35;1.02;;;38.30;29.20;;;;;;5092885;28;20380;-76
2022/07/19 08:22:56;;;;;;;4.22;0.88;;;38.60;28.70;;;;;;5092931;28;20028;-77
2022/07/19 08:25:21;;;;;;;0.88;0.80;;;38.90;28.60;;;;;;5092487;28;20028;-75
2022/07/19 08:27:47;;;;;;;2.85;1.25;;;39.30;28.60;;;;;;5091914;28;20020;-78
2022/07/19 08:30:14;;;;;;;2.50;1.10;;;39.80;28.40;;;;;;5092936;28;20482;-78
2022/07/19 08:32:40;;;;;;;1.15;0.93;;;40.40;28.40;;;;;;5093109;28;20032;-76
2022/07/19 08:35:08;;;;;;;1.17;0.85;;;40.70;27.50;;;;;;5092633;28;20074;-76
2022/07/19 08:37:34;;;;;;;5.88;1.13;;;41.20;27.30;;;;;;5091748;28;20036;-77
2022/07/19 08:40:00;;;;;;;4.78;0.90;;;41.60;26.90;;;;;;5091543;28;20039;-76
2022/07/19 08:42:26;;;;;;;0.95;0.80;;;41.90;27.00;;;;;;5092283;28;20078;-76
2022/07/19 08:44:53;;;;;;;1.50;0.90;;;41.70;26.30;;;;;;5092969;28;20020;-76
2022/07/19 08:47:20;;;;;;;1.48;1.00;;;41.70;26.60;;;;;;5092501;28;20388;-76
2022/07/19 08:49:46;;;;;;;3.85;1.35;;;41.70;26.60;;;;;;5092604;28;20093;-77
2022/07/19 08:52:11;;;;;;;1.50;0.90;;;41.60;26.50;;;;;;5091924;28;20028;-76
2022/07/19 08:54:38;;;;;;;1.90;1.10;;;40.70;26.60;;;;;;5092436;28;20035;-76
2022/07/19 08:59:48;;;;;;;3.25;1.77;;;39.30;28.00;;;;;;5092365;28;20491;-76
2022/07/19 09:02:15;;;;;;;1.63;1.10;;;38.40;27.70;;;;;;5092501;28;20040;-76
2022/07/19 09:04:40;;;;;;;1.73;1.20;;;37.70;27.90;;;;;;5092631;28;20431;-76
2022/07/19 09:07:06;;;;;;;2.00;1.45;;;37.20;28.50;;;;;;5092528;28;20027;-76
2022/07/19 09:09:36;;;;;;;2.40;1.25;;;36.70;28.40;;;;;;5091929;28;20028;-75
2022/07/19 09:12:04;;;;;;;1.73;1.02;;;36.40;29.60;;;;;;5092860;28;20055;-75
2022/07/19 09:14:30;;;;;;;1.65;0.77;;;36.20;29.50;;;;;;5094157;28;20042;-75
2022/07/19 09:17:11;;;;;;;1.83;1.00;;;36.00;28.60;;;;;;5096136;28;20035;-76
2022/07/19 09:19:42;;;;;;;1.08;0.80;;;35.80;29.20;;;;;;5096418;28;20060;-76
2022/07/19 09:22:17;;;;;;;1.25;0.75;;;35.40;29.50;;;;;;5096276;28;20325;-74
2022/07/19 09:24:48;;;;;;;0.70;0.63;;;35.30;29.10;;;;;;5096492;28;20074;-76
2022/07/19 09:27:16;;;;;;;2.65;0.85;;;34.90;29.20;;;;;;5095837;28;20034;-74
2022/07/19 09:29:45;;;;;;;0.82;0.80;;;34.70;29.60;;;;;;5096124;28;20524;-74
2022/07/19 09:32:18;;;;;;;2.40;0.77;;;34.60;29.50;;;;;;5095569;28;20035;-75
2022/07/19 09:34:55;;;;;;;1.38;1.17;;;34.40;29.50;;;;;;5096251;28;20032;-77
2022/07/19 09:37:28;;;;;;;1.25;0.77;;;34.20;29.40;;;;;;5094645;28;20069;-76
2022/07/19 09:40:02;;;;;;;0.70;0.60;;;34.00;29.80;;;;;;5096099;28;20036;-76
2022/07/19 09:42:42;;;;;;;1.42;0.68;;;33.90;29.90;;;;;;5095767;28;20024;-77
2022/07/19 09:45:13;;;;;;;2.85;0.95;;;33.80;30.10;;;;;;5095925;28;20047;-77
2022/07/19 09:47:44;;;;;;;1.30;0.80;;;33.80;30.30;;;;;;5096560;28;20028;-78
2022/07/19 09:50:14;;;;;;;1.58;0.80;;;33.80;29.80;;;;;;5095620;28;20469;-77
2022/07/19 09:52:40;;;;;;;1.38;0.80;;;33.70;29.90;;;;;;5095369;28;20017;-78
2022/07/19 09:55:08;;;;;;;0.80;0.77;;;33.60;29.60;;;;;;5095856;28;20035;-78
2022/07/19 09:57:44;;;;;;;2.33;0.80;;;33.40;29.60;;;;;;5095460;28;20032;-77
2022/07/19 10:00:11;;;;;;;1.17;0.63;;;33.40;29.90;;;;;;5095612;28;20032;-78
2022/07/19 10:02:40;;;;;;;1.15;0.90;;;33.40;29.80;;;;;;5095445;28;20032;-77
2022/07/19 10:05:09;;;;;;;2.85;0.90;;;33.30;30.10;;;;;;5095509;28;20032;-77
2022/07/19 10:07:34;;;;;;;2.05;0.80;;;33.40;29.90;;;;;;5095055;28;20033;-77
2022/07/19 10:10:05;;;;;;;1.40;0.65;;;33.30;29.90;;;;;;5095786;28;20032;-77
2022/07/19 10:12:32;;;;;;;1.42;0.80;;;33.30;29.80;;;;;;5095058;28;20020;-77
2022/07/19 10:14:58;;;;;;;1.45;0.88;;;33.30;30.00;;;;;;5095473;28;20434;-76
2022/07/19 10:17:34;;;;;;;1.65;1.10;;;33.30;29.90;;;;;;5094909;28;20027;-77
2022/07/19 10:20:01;;;;;;;1.88;0.90;;;33.20;29.80;;;;;;5094989;28;20031;-76
2022/07/19 10:22:27;;;;;;;0.88;0.70;;;33.10;29.90;;;;;;5094737;28;20103;-76
2022/07/19 10:25:03;;;;;;;0.93;0.80;;;33.10;30.50;;;;;;5094847;28;20028;-77
2022/07/19 10:27:36;;;;;;;1.40;0.80;;;33.20;31.00;;;;;;5094798;28;20024;-77
2022/07/19 10:30:11;;;;;;;1.08;0.80;;;33.30;31.10;;;;;;5095052;28;20123;-78
2022/07/19 10:32:42;;;;;;;1.67;0.90;;;33.40;30.10;;;;;;5094127;28;20392;-77
2022/07/19 10:35:18;;;;;;;1.05;0.70;;;33.30;29.90;;;;;;5094745;28;20027;-76
2022/07/19 10:37:49;;;;;;;2.72;0.90;;;33.30;30.00;;;;;;5094882;28;20031;-75
2022/07/19 10:40:38;;;;;;;0.70;0.60;;;33.30;29.80;;;;;;5094179;28;20077;-74
2022/07/19 10:43:09;;;;;;;1.70;1.27;;;33.20;30.00;;;;;;5094666;28;20036;-75
2022/07/19 10:45:36;;;;;;;1.67;0.98;;;33.10;29.80;;;;;;5094050;28;20829;-76
2022/07/19 10:48:09;;;;;;;1.05;0.75;;;33.10;30.00;;;;;;5094463;28;20032;-76
2022/07/19 10:51:04;;;;;;;2.47;0.93;;;33.10;30.10;;;;;;5094318;28;20036;-77
2022/07/19 10:53:42;;;;;;;1.60;1.00;;;33.10;31.20;;;;;;5085016;28;20036;-77
2022/07/19 10:56:33;;;;;;;1.10;0.75;;;33.20;30.90;;;;;;5094135;28;20024;-76
2022/07/19 10:59:07;;;;;;;2.33;0.80;;;33.10;30.00;;;;;;5094076;28;20460;-77
2022/07/19 11:01:35;;;;;;;2.78;0.93;;;33.10;29.90;;;;;;5092877;28;20028;-76
2022/07/19 11:04:22;;;;;;;2.35;1.08;;;33.00;29.70;;;;;;5094355;28;20024;-76
2022/07/19 11:06:49;;;;;;;2.15;1.00;;;33.10;30.00;;;;;;5094517;28;20099;-76
2022/07/19 11:09:14;;;;;;;0.95;0.70;;;33.20;30.70;;;;;;5094406;28;20357;-76
2022/07/19 11:11:40;;;;;;;2.15;0.85;;;33.20;30.00;;;;;;5093690;28;20097;-76
2022/07/19 11:14:06;;;;;;;1.70;0.88;;;33.20;30.00;;;;;;5094113;28;20020;-76
2022/07/19 11:16:31;;;;;;;0.77;0.75;;;33.20;30.00;;;;;;5094140;28;20107;-76
2022/07/19 11:19:05;;;;;;;0.70;0.65;;;33.30;30.00;;;;;;5093882;28;20111;-76
2022/07/19 11:21:33;;;;;;;1.52;0.75;;;33.30;29.80;;;;;;5093686;28;20038;-76
2022/07/19 11:24:00;;;;;;;1.27;0.80;;;33.20;29.50;;;;;;5094113;28;20110;-76
2022/07/19 11:26:26;;;;;;;0.60;0.52;;;33.20;29.30;;;;;;5093768;28;20053;-76
2022/07/19 11:28:52;;;;;;;1.10;0.70;;;33.10;29.50;;;;;;5093738;28;20052;-76
2022/07/19 11:31:22;;;;;;;2.50;1.10;;;33.10;29.80;;;;;;5093582;28;20107;-74
2022/07/19 11:33:50;;;;;;;2.60;0.77;;;33.10;29.50;;;;;;5093752;28;20103;-77
2022/07/19 11:36:17;;;;;;;0.90;0.80;;;33.10;30.00;;;;;;5093192;28;20035;-77
2022/07/19 11:38:50;;;;;;;1.42;1.00;;;33.10;30.00;;;;;;5093742;28;20028;-76
2022/07/19 11:41:18;;;;;;;0.90;0.70;;;33.10;29.60;;;;;;5094004;28;20028;-76
2022/07/19 11:43:55;;;;;;;0.88;0.77;;;33.10;29.50;;;;;;5093754;28;20031;-76
2022/07/19 11:46:22;;;;;;;0.80;0.80;;;33.10;29.80;;;;;;5093444;28;20024;-76
2022/07/19 11:48:49;;;;;;;1.40;0.75;;;33.10;29.80;;;;;;5093337;28;20418;-76
2022/07/19 11:51:16;;;;;;;1.70;1.05;;;33.20;29.80;;;;;;5093657;28;20032;-77
2022/07/19 11:53:42;;;;;;;2.67;1.27;;;33.20;29.70;;;;;;5093208;28;20107;-76
2022/07/19 11:56:20;;;;;;;1.45;1.02;;;33.20;30.00;;;;;;5093256;28;20038;-77
2022/07/19 11:58:47;;;;;;;1.83;0.90;;;33.10;29.70;;;;;;5093435;28;20024;-76
2022/07/19 12:01:13;;;;;;;1.05;0.93;;;33.00;29.80;;;;;;5093645;28;20493;-77
2022/07/19 12:03:39;;;;;;;0.70;0.70;;;33.00;30.00;;;;;;5092335;28;20365;-77
2022/07/19 12:06:07;;;;;;;1.05;0.90;;;33.00;29.90;;;;;;5093238;28;20020;-77
2022/07/19 12:08:33;;;;;;;2.67;1.30;;;33.00;30.00;;;;;;5092714;28;20384;-77
2022/07/19 12:10:59;;;;;;;1.75;1.10;;;33.00;30.60;;;;;;5093042;28;20081;-76
2022/07/19 12:13:32;;;;;;;1.88;0.80;;;33.00;30.40;;;;;;5092840;28;20020;-76
2022/07/19 12:16:06;;;;;;;0.93;0.70;;;32.90;29.30;;;;;;5093182;28;20407;-76
2022/07/19 12:18:44;;;;;;;1.15;0.75;;;32.90;29.30;;;;;;5093014;28;20464;-77
2022/07/19 12:21:38;;;;;;;1.27;0.88;;;32.90;29.20;;;;;;5093330;28;20050;-77
2022/07/19 12:24:12;;;;;;;1.33;1.00;;;32.80;29.60;;;;;;5092950;28;20024;-77
2022/07/19 12:26:39;;;;;;;1.00;0.80;;;32.70;29.60;;;;;;5092691;28;20119;-77
2022/07/19 12:29:35;;;;;;;1.58;0.70;;;32.70;29.40;;;;;;5092862;28;20047;-77
2022/07/19 12:32:09;;;;;;;2.67;1.10;;;32.60;29.50;;;;;;5092903;28;20040;-77
2022/07/19 12:34:47;;;;;;;1.10;0.90;;;32.50;29.60;;;;;;5092292;28;20028;-75
2022/07/19 12:37:31;;;;;;;1.80;0.88;;;32.50;29.70;;;;;;5092935;28;20115;-76
2022/07/19 12:40:25;;;;;;;0.80;0.80;;;32.30;29.50;;;;;;5092868;28;20040;-76
2022/07/19 12:43:02;;;;;;;1.17;0.80;;;32.30;29.70;;;;;;5092685;28;20084;-76
2022/07/19 12:45:51;;;;;;;2.88;1.45;;;32.20;29.70;;;;;;5092350;28;20032;-76
2022/07/19 12:48:17;;;;;;;2.08;1.27;;;32.10;29.80;;;;;;5094149;28;20039;-76
2022/07/19 12:50:45;;;;;;;1.50;0.70;;;32.10;30.00;;;;;;5095938;28;20031;-77
2022/07/19 12:53:13;;;;;;;0.80;0.80;;;32.10;30.30;;;;;;5096804;28;20453;-76